sensor_id;sensor_type;location;lat;lon;timestamp;P1;durP1;ratioP1;P2;durP2;ratioP2
20671;SDS011;10495;50.922;4.760;2022-07-18T00:01:25;3.60;;;1.73;;
20671;SDS011;10495;50.922;4.760;2022-07-18T00:03:50;6.23;;;2.00;;
20671;SDS011;10495;50.922;4.760;2022-07-18T00:06:16;2.63;;;2.00;;
20671;SDS011;10495;50.922;4.760;2022-07-18T00:08:42;2.10;;;1.90;;
20671;SDS011;10495;50.922;4.760;2022-07-18T00:11:07;5.13;;;2.30;;
20671;SDS011;10495;50.922;4.760;2022-07-18T00:13:33;4.17;;;2.00;;
20671;SDS011;10495;50.922;4.760;2022-07-18T00:15:58;2.80;;;1.80;;
20671;SDS011;10495;50.922;4.760;2022-07-18T00:18:24;2.37;;;1.80;;
20671;SDS011;10495;50.922;4.760;2022-07-18T00:20:49;3.93;;;1.90;;
20671;SDS011;10495;50.922;4.760;2022-07-18T00:23:15;2.90;;;2.07;;
20671;SDS011;10495;50.922;4.760;2022-07-18T00:25:41;2.37;;;1.87;;
20671;SDS011;10495;50.922;4.760;2022-07-18T00:28:06;5.07;;;2.30;;
20671;SDS011;10495;50.922;4.760;2022-07-18T00:30:32;4.77;;;2.10;;
20671;SDS011;10495;50.922;4.760;2022-07-18T00:32:58;2.30;;;1.87;;
20671;SDS011;10495;50.922;4.760;2022-07-18T00:35:23;3.73;;;2.13;;
20671;SDS011;10495;50.922;4.760;2022-07-18T00:37:49;2.20;;;1.60;;
20671;SDS011;10495;50.922;4.760;2022-07-18T00:40:15;2.63;;;1.90;;
20671;SDS011;10495;50.922;4.760;2022-07-18T00:42:40;2.70;;;1.90;;
20671;SDS011;10495;50.922;4.760;2022-07-18T00:45:06;2.03;;;1.70;;
20671;SDS011;10495;50.922;4.760;2022-07-18T00:47:32;5.57;;;1.90;;
20671;SDS011;10495;50.922;4.760;2022-07-18T00:49:58;2.63;;;1.90;;
20671;SDS011;10495;50.922;4.760;2022-07-18T00:52:23;2.23;;;1.60;;
20671;SDS011;10495;50.922;4.760;2022-07-18T00:54:49;3.10;;;1.87;;
20671;SDS011;10495;50.922;4.760;2022-07-18T00:57:15;3.00;;;2.17;;
20671;SDS011;10495;50.922;4.760;2022-07-18T00:59:41;2.50;;;2.00;;
20671;SDS011;10495;50.922;4.760;2022-07-18T01:02:26;4.07;;;2.13;;
20671;SDS011;10495;50.922;4.760;2022-07-18T01:04:51;3.10;;;1.80;;
20671;SDS011;10495;50.922;4.760;2022-07-18T01:07:17;2.40;;;1.90;;
20671;SDS011;10495;50.922;4.760;2022-07-18T01:09:43;3.73;;;2.27;;
20671;SDS011;10495;50.922;4.760;2022-07-18T01:12:09;4.83;;;2.30;;
20671;SDS011;10495;50.922;4.760;2022-07-18T01:14:35;4.40;;;2.33;;
20671;SDS011;10495;50.922;4.760;2022-07-18T01:17:01;3.13;;;2.10;;
20671;SDS011;10495;50.922;4.760;2022-07-18T01:19:27;3.93;;;2.03;;
20671;SDS011;10495;50.922;4.760;2022-07-18T01:21:52;3.07;;;1.90;;
20671;SDS011;10495;50.922;4.760;2022-07-18T01:24:18;5.77;;;2.50;;
20671;SDS011;10495;50.922;4.760;2022-07-18T01:26:44;4.10;;;2.10;;
20671;SDS011;10495;50.922;4.760;2022-07-18T01:29:09;3.87;;;2.00;;
20671;SDS011;10495;50.922;4.760;2022-07-18T01:31:35;2.60;;;1.90;;
20671;SDS011;10495;50.922;4.760;2022-07-18T01:34:01;4.67;;;2.23;;
20671;SDS011;10495;50.922;4.760;2022-07-18T01:36:27;4.37;;;2.60;;
20671;SDS011;10495;50.922;4.760;2022-07-18T01:38:53;3.27;;;2.10;;
20671;SDS011;10495;50.922;4.760;2022-07-18T01:41:18;3.43;;;2.40;;
20671;SDS011;10495;50.922;4.760;2022-07-18T01:43:44;3.50;;;2.27;;
20671;SDS011;10495;50.922;4.760;2022-07-18T01:46:10;5.70;;;2.97;;
20671;SDS011;10495;50.922;4.760;2022-07-18T01:48:39;2.50;;;1.93;;
20671;SDS011;10495;50.922;4.760;2022-07-18T01:51:06;4.83;;;2.50;;
20671;SDS011;10495;50.922;4.760;2022-07-18T01:53:36;5.13;;;3.10;;
20671;SDS011;10495;50.922;4.760;2022-07-18T01:56:06;3.33;;;2.60;;
20671;SDS011;10495;50.922;4.760;2022-07-18T01:58:32;3.87;;;2.30;;
20671;SDS011;10495;50.922;4.760;2022-07-18T02:00:58;3.90;;;1.90;;
20671;SDS011;10495;50.922;4.760;2022-07-18T02:03:23;2.67;;;1.90;;
20671;SDS011;10495;50.922;4.760;2022-07-18T02:05:49;3.63;;;2.23;;
20671;SDS011;10495;50.922;4.760;2022-07-18T02:08:14;2.60;;;1.93;;
20671;SDS011;10495;50.922;4.760;2022-07-18T02:10:40;2.00;;;1.80;;
20671;SDS011;10495;50.922;4.760;2022-07-18T02:13:06;3.23;;;1.90;;
20671;SDS011;10495;50.922;4.760;2022-07-18T02:15:32;2.67;;;2.00;;
20671;SDS011;10495;50.922;4.760;2022-07-18T02:17:57;2.60;;;1.80;;
20671;SDS011;10495;50.922;4.760;2022-07-18T02:20:23;3.03;;;1.83;;
20671;SDS011;10495;50.922;4.760;2022-07-18T02:22:49;4.17;;;1.87;;
20671;SDS011;10495;50.922;4.760;2022-07-18T02:25:15;2.10;;;1.83;;
20671;SDS011;10495;50.922;4.760;2022-07-18T02:27:40;2.40;;;1.93;;
20671;SDS011;10495;50.922;4.760;2022-07-18T02:30:07;2.70;;;2.00;;
20671;SDS011;10495;50.922;4.760;2022-07-18T02:32:34;2.80;;;1.70;;
20671;SDS011;10495;50.922;4.760;2022-07-18T02:35:02;3.23;;;1.80;;
20671;SDS011;10495;50.922;4.760;2022-07-18T02:37:29;4.50;;;2.00;;
20671;SDS011;10495;50.922;4.760;2022-07-18T02:39:55;2.03;;;1.83;;
20671;SDS011;10495;50.922;4.760;2022-07-18T02:42:21;2.10;;;1.90;;
20671;SDS011;10495;50.922;4.760;2022-07-18T02:44:46;3.83;;;2.13;;
20671;SDS011;10495;50.922;4.760;2022-07-18T02:47:12;1.80;;;1.70;;
20671;SDS011;10495;50.922;4.760;2022-07-18T02:49:38;3.57;;;2.10;;
20671;SDS011;10495;50.922;4.760;2022-07-18T02:52:05;4.67;;;2.40;;
20671;SDS011;10495;50.922;4.760;2022-07-18T02:54:33;2.73;;;1.93;;
20671;SDS011;10495;50.922;4.760;2022-07-18T02:56:59;2.50;;;1.60;;
20671;SDS011;10495;50.922;4.760;2022-07-18T02:59:26;2.13;;;1.93;;
20671;SDS011;10495;50.922;4.760;2022-07-18T03:01:52;4.03;;;2.50;;
20671;SDS011;10495;50.922;4.760;2022-07-18T03:04:18;2.57;;;2.30;;
20671;SDS011;10495;50.922;4.760;2022-07-18T03:06:45;3.00;;;2.23;;
20671;SDS011;10495;50.922;4.760;2022-07-18T03:09:11;3.07;;;2.03;;
20671;SDS011;10495;50.922;4.760;2022-07-18T03:11:37;3.03;;;2.23;;
20671;SDS011;10495;50.922;4.760;2022-07-18T03:14:03;2.90;;;2.03;;
20671;SDS011;10495;50.922;4.760;2022-07-18T03:16:29;3.23;;;2.27;;
20671;SDS011;10495;50.922;4.760;2022-07-18T03:18:54;2.10;;;1.90;;
20671;SDS011;10495;50.922;4.760;2022-07-18T03:21:20;3.90;;;1.97;;
20671;SDS011;10495;50.922;4.760;2022-07-18T03:23:46;3.47;;;2.00;;
20671;SDS011;10495;50.922;4.760;2022-07-18T03:26:12;3.33;;;2.03;;
20671;SDS011;10495;50.922;4.760;2022-07-18T03:28:37;3.37;;;2.53;;
20671;SDS011;10495;50.922;4.760;2022-07-18T03:31:03;3.77;;;2.20;;
20671;SDS011;10495;50.922;4.760;2022-07-18T03:33:29;3.30;;;2.30;;
20671;SDS011;10495;50.922;4.760;2022-07-18T03:35:55;3.90;;;1.90;;
20671;SDS011;10495;50.922;4.760;2022-07-18T03:38:21;3.13;;;2.10;;
20671;SDS011;10495;50.922;4.760;2022-07-18T03:40:47;3.50;;;1.87;;
20671;SDS011;10495;50.922;4.760;2022-07-18T03:43:12;5.03;;;2.30;;
20671;SDS011;10495;50.922;4.760;2022-07-18T03:45:38;2.00;;;1.77;;
20671;SDS011;10495;50.922;4.760;2022-07-18T03:48:04;3.43;;;2.10;;
20671;SDS011;10495;50.922;4.760;2022-07-18T03:50:29;3.83;;;2.20;;
20671;SDS011;10495;50.922;4.760;2022-07-18T03:52:55;2.30;;;1.80;;
20671;SDS011;10495;50.922;4.760;2022-07-18T03:55:21;2.77;;;2.40;;
20671;SDS011;10495;50.922;4.760;2022-07-18T03:57:47;2.97;;;2.13;;
20671;SDS011;10495;50.922;4.760;2022-07-18T04:00:13;3.17;;;2.20;;
20671;SDS011;10495;50.922;4.760;2022-07-18T04:02:40;3.20;;;2.33;;
20671;SDS011;10495;50.922;4.760;2022-07-18T04:05:07;3.87;;;2.23;;
20671;SDS011;10495;50.922;4.760;2022-07-18T04:07:33;5.60;;;2.40;;
20671;SDS011;10495;50.922;4.760;2022-07-18T04:09:59;2.80;;;2.17;;
20671;SDS011;10495;50.922;4.760;2022-07-18T04:12:25;3.73;;;1.97;;
20671;SDS011;10495;50.922;4.760;2022-07-18T04:14:50;2.43;;;2.23;;
20671;SDS011;10495;50.922;4.760;2022-07-18T04:17:16;2.93;;;2.10;;
20671;SDS011;10495;50.922;4.760;2022-07-18T04:19:41;3.00;;;1.97;;
20671;SDS011;10495;50.922;4.760;2022-07-18T04:22:07;2.63;;;1.93;;
20671;SDS011;10495;50.922;4.760;2022-07-18T04:24:33;3.77;;;2.20;;
20671;SDS011;10495;50.922;4.760;2022-07-18T04:26:58;3.40;;;1.90;;
20671;SDS011;10495;50.922;4.760;2022-07-18T04:29:24;2.77;;;2.20;;
20671;SDS011;10495;50.922;4.760;2022-07-18T04:31:50;5.50;;;2.27;;
20671;SDS011;10495;50.922;4.760;2022-07-18T04:34:15;4.17;;;2.33;;
20671;SDS011;10495;50.922;4.760;2022-07-18T04:36:41;5.93;;;2.73;;
20671;SDS011;10495;50.922;4.760;2022-07-18T04:39:07;3.50;;;2.40;;
20671;SDS011;10495;50.922;4.760;2022-07-18T04:41:33;3.53;;;2.20;;
20671;SDS011;10495;50.922;4.760;2022-07-18T04:43:58;2.60;;;2.03;;
20671;SDS011;10495;50.922;4.760;2022-07-18T04:46:24;5.70;;;2.90;;
20671;SDS011;10495;50.922;4.760;2022-07-18T04:48:49;3.90;;;2.60;;
20671;SDS011;10495;50.922;4.760;2022-07-18T04:51:15;3.43;;;2.60;;
20671;SDS011;10495;50.922;4.760;2022-07-18T04:53:41;3.13;;;2.67;;
20671;SDS011;10495;50.922;4.760;2022-07-18T04:56:06;3.20;;;2.60;;
20671;SDS011;10495;50.922;4.760;2022-07-18T04:58:32;4.73;;;2.77;;
20671;SDS011;10495;50.922;4.760;2022-07-18T05:00:58;3.23;;;2.50;;
20671;SDS011;10495;50.922;4.760;2022-07-18T05:03:23;3.33;;;2.77;;
20671;SDS011;10495;50.922;4.760;2022-07-18T05:05:49;5.47;;;2.97;;
20671;SDS011;10495;50.922;4.760;2022-07-18T05:08:15;2.97;;;2.60;;
20671;SDS011;10495;50.922;4.760;2022-07-18T05:10:40;6.33;;;2.83;;
20671;SDS011;10495;50.922;4.760;2022-07-18T05:13:06;2.70;;;2.40;;
20671;SDS011;10495;50.922;4.760;2022-07-18T05:15:32;4.93;;;2.73;;
20671;SDS011;10495;50.922;4.760;2022-07-18T05:17:57;5.40;;;3.03;;
20671;SDS011;10495;50.922;4.760;2022-07-18T05:20:24;3.33;;;2.20;;
20671;SDS011;10495;50.922;4.760;2022-07-18T05:22:50;3.90;;;2.70;;
20671;SDS011;10495;50.922;4.760;2022-07-18T05:25:17;3.50;;;2.33;;
20671;SDS011;10495;50.922;4.760;2022-07-18T05:27:42;5.20;;;2.67;;
20671;SDS011;10495;50.922;4.760;2022-07-18T05:30:09;3.77;;;2.47;;
20671;SDS011;10495;50.922;4.760;2022-07-18T05:35:03;3.28;;;2.28;;
20671;SDS011;10495;50.922;4.760;2022-07-18T05:37:30;6.65;;;2.80;;
20671;SDS011;10495;50.922;4.760;2022-07-18T05:39:55;4.90;;;2.50;;
20671;SDS011;10495;50.922;4.760;2022-07-18T05:42:21;3.05;;;2.35;;
20671;SDS011;10495;50.922;4.760;2022-07-18T05:44:46;3.65;;;2.10;;
20671;SDS011;10495;50.922;4.760;2022-07-18T05:47:12;2.90;;;2.08;;
20671;SDS011;10495;50.922;4.760;2022-07-18T05:49:38;5.15;;;3.03;;
20671;SDS011;10495;50.922;4.760;2022-07-18T05:52:05;3.28;;;2.20;;
20671;SDS011;10495;50.922;4.760;2022-07-18T05:54:31;7.68;;;2.80;;
20671;SDS011;10495;50.922;4.760;2022-07-18T05:56:57;8.60;;;3.25;;
20671;SDS011;10495;50.922;4.760;2022-07-18T05:59:23;4.72;;;2.70;;
20671;SDS011;10495;50.922;4.760;2022-07-18T06:01:48;6.10;;;2.42;;
20671;SDS011;10495;50.922;4.760;2022-07-18T06:04:14;5.85;;;2.53;;
20671;SDS011;10495;50.922;4.760;2022-07-18T06:06:40;5.43;;;2.40;;
20671;SDS011;10495;50.922;4.760;2022-07-18T06:09:06;4.40;;;2.58;;
20671;SDS011;10495;50.922;4.760;2022-07-18T06:11:33;3.67;;;2.70;;
20671;SDS011;10495;50.922;4.760;2022-07-18T06:13:59;4.63;;;2.75;;
20671;SDS011;10495;50.922;4.760;2022-07-18T06:16:27;4.95;;;2.58;;
20671;SDS011;10495;50.922;4.760;2022-07-18T06:18:53;6.38;;;2.50;;
20671;SDS011;10495;50.922;4.760;2022-07-18T06:21:18;4.82;;;2.42;;
20671;SDS011;10495;50.922;4.760;2022-07-18T06:23:44;6.40;;;2.80;;
20671;SDS011;10495;50.922;4.760;2022-07-18T06:26:10;3.90;;;2.60;;
20671;SDS011;10495;50.922;4.760;2022-07-18T06:28:35;5.03;;;2.05;;
20671;SDS011;10495;50.922;4.760;2022-07-18T06:31:01;3.72;;;2.03;;
20671;SDS011;10495;50.922;4.760;2022-07-18T06:33:27;5.00;;;2.03;;
20671;SDS011;10495;50.922;4.760;2022-07-18T06:35:52;3.25;;;1.98;;
20671;SDS011;10495;50.922;4.760;2022-07-18T06:38:18;8.48;;;2.50;;
20671;SDS011;10495;50.922;4.760;2022-07-18T06:40:43;2.97;;;2.03;;
20671;SDS011;10495;50.922;4.760;2022-07-18T06:43:09;5.07;;;2.40;;
20671;SDS011;10495;50.922;4.760;2022-07-18T06:45:35;5.10;;;2.40;;
20671;SDS011;10495;50.922;4.760;2022-07-18T06:48:01;4.20;;;2.08;;
20671;SDS011;10495;50.922;4.760;2022-07-18T06:50:27;5.90;;;2.67;;
20671;SDS011;10495;50.922;4.760;2022-07-18T06:52:53;3.40;;;2.25;;
20671;SDS011;10495;50.922;4.760;2022-07-18T06:55:19;2.25;;;1.90;;
20671;SDS011;10495;50.922;4.760;2022-07-18T06:57:44;4.00;;;2.13;;
20671;SDS011;10495;50.922;4.760;2022-07-18T07:00:11;3.70;;;1.85;;
20671;SDS011;10495;50.922;4.760;2022-07-18T07:02:56;4.22;;;1.80;;
20671;SDS011;10495;50.922;4.760;2022-07-18T07:05:22;4.57;;;1.90;;
20671;SDS011;10495;50.922;4.760;2022-07-18T07:07:48;2.20;;;2.00;;
20671;SDS011;10495;50.922;4.760;2022-07-18T07:10:15;2.58;;;2.00;;
20671;SDS011;10495;50.922;4.760;2022-07-18T07:12:43;5.40;;;2.05;;
20671;SDS011;10495;50.922;4.760;2022-07-18T07:15:12;1.70;;;1.60;;
20671;SDS011;10495;50.922;4.760;2022-07-18T07:17:38;3.10;;;2.05;;
20671;SDS011;10495;50.922;4.760;2022-07-18T07:20:04;2.92;;;1.90;;
20671;SDS011;10495;50.922;4.760;2022-07-18T07:22:32;2.28;;;1.67;;
20671;SDS011;10495;50.922;4.760;2022-07-18T07:25:09;5.53;;;2.00;;
20671;SDS011;10495;50.922;4.760;2022-07-18T07:27:35;3.33;;;1.95;;
20671;SDS011;10495;50.922;4.760;2022-07-18T07:30:01;3.28;;;2.03;;
20671;SDS011;10495;50.922;4.760;2022-07-18T07:32:27;5.45;;;2.45;;
20671;SDS011;10495;50.922;4.760;2022-07-18T07:34:52;7.10;;;1.90;;
20671;SDS011;10495;50.922;4.760;2022-07-18T07:37:18;6.70;;;1.92;;
20671;SDS011;10495;50.922;4.760;2022-07-18T07:39:43;4.68;;;1.92;;
20671;SDS011;10495;50.922;4.760;2022-07-18T07:42:09;2.15;;;1.77;;
20671;SDS011;10495;50.922;4.760;2022-07-18T07:44:34;4.47;;;1.83;;
20671;SDS011;10495;50.922;4.760;2022-07-18T07:47:01;2.38;;;1.92;;
20671;SDS011;10495;50.922;4.760;2022-07-18T07:49:27;4.15;;;2.60;;
20671;SDS011;10495;50.922;4.760;2022-07-18T07:51:53;2.08;;;1.70;;
20671;SDS011;10495;50.922;4.760;2022-07-18T07:54:18;2.95;;;1.65;;
20671;SDS011;10495;50.922;4.760;2022-07-18T07:56:44;4.55;;;1.90;;
20671;SDS011;10495;50.922;4.760;2022-07-18T07:59:10;2.15;;;1.63;;
20671;SDS011;10495;50.922;4.760;2022-07-18T08:01:35;4.32;;;2.08;;
20671;SDS011;10495;50.922;4.760;2022-07-18T08:04:01;4.88;;;2.10;;
20671;SDS011;10495;50.922;4.760;2022-07-18T08:06:26;2.40;;;1.83;;
20671;SDS011;10495;50.922;4.760;2022-07-18T08:08:52;1.88;;;1.52;;
20671;SDS011;10495;50.922;4.760;2022-07-18T08:11:18;3.88;;;1.90;;
20671;SDS011;10495;50.922;4.760;2022-07-18T08:13:43;3.08;;;1.92;;
20671;SDS011;10495;50.922;4.760;2022-07-18T08:16:09;2.20;;;1.55;;
20671;SDS011;10495;50.922;4.760;2022-07-18T08:18:34;1.85;;;1.73;;
20671;SDS011;10495;50.922;4.760;2022-07-18T08:21:00;5.20;;;1.95;;
20671;SDS011;10495;50.922;4.760;2022-07-18T08:23:25;2.10;;;1.90;;
20671;SDS011;10495;50.922;4.760;2022-07-18T08:25:51;3.50;;;1.85;;
20671;SDS011;10495;50.922;4.760;2022-07-18T08:28:17;2.92;;;1.70;;
20671;SDS011;10495;50.922;4.760;2022-07-18T08:30:43;2.13;;;1.58;;
20671;SDS011;10495;50.922;4.760;2022-07-18T08:33:09;3.03;;;1.75;;
20671;SDS011;10495;50.922;4.760;2022-07-18T08:35:35;2.47;;;1.75;;
20671;SDS011;10495;50.922;4.760;2022-07-18T08:38:02;2.30;;;2.00;;
20671;SDS011;10495;50.922;4.760;2022-07-18T08:40:28;3.85;;;1.70;;
20671;SDS011;10495;50.922;4.760;2022-07-18T08:42:54;4.07;;;1.83;;
20671;SDS011;10495;50.922;4.760;2022-07-18T08:45:22;3.13;;;1.83;;
20671;SDS011;10495;50.922;4.760;2022-07-18T08:47:48;2.97;;;1.85;;
20671;SDS011;10495;50.922;4.760;2022-07-18T08:50:15;5.57;;;1.75;;
20671;SDS011;10495;50.922;4.760;2022-07-18T08:52:41;4.78;;;1.83;;
20671;SDS011;10495;50.922;4.760;2022-07-18T08:55:07;3.30;;;1.85;;
20671;SDS011;10495;50.922;4.760;2022-07-18T08:57:33;3.92;;;1.80;;
20671;SDS011;10495;50.922;4.760;2022-07-18T08:59:59;3.50;;;2.20;;
20671;SDS011;10495;50.922;4.760;2022-07-18T09:02:32;3.47;;;2.00;;
20671;SDS011;10495;50.922;4.760;2022-07-18T09:05:00;5.63;;;2.05;;
20671;SDS011;10495;50.922;4.760;2022-07-18T09:07:28;4.25;;;1.70;;
20671;SDS011;10495;50.922;4.760;2022-07-18T09:09:59;3.67;;;1.88;;
20671;SDS011;10495;50.922;4.760;2022-07-18T09:12:27;2.10;;;1.70;;
20671;SDS011;10495;50.922;4.760;2022-07-18T09:14:56;4.28;;;1.75;;
20671;SDS011;10495;50.922;4.760;2022-07-18T09:17:23;2.60;;;2.10;;
20671;SDS011;10495;50.922;4.760;2022-07-18T09:20:07;2.45;;;1.60;;
20671;SDS011;10495;50.922;4.760;2022-07-18T09:22:36;2.13;;;1.88;;
20671;SDS011;10495;50.922;4.760;2022-07-18T09:25:09;5.57;;;2.08;;
20671;SDS011;10495;50.922;4.760;2022-07-18T09:35:35;3.28;;;1.70;;
20671;SDS011;10495;50.922;4.760;2022-07-18T09:38:05;3.13;;;1.83;;
20671;SDS011;10495;50.922;4.760;2022-07-18T09:40:39;1.90;;;1.63;;
20671;SDS011;10495;50.922;4.760;2022-07-18T09:43:10;2.97;;;1.90;;
20671;SDS011;10495;50.922;4.760;2022-07-18T09:48:15;2.33;;;1.98;;
20671;SDS011;10495;50.922;4.760;2022-07-18T09:50:52;2.53;;;2.17;;
20671;SDS011;10495;50.922;4.760;2022-07-18T09:53:24;2.28;;;1.80;;
20671;SDS011;10495;50.922;4.760;2022-07-18T09:55:55;2.05;;;1.60;;
20671;SDS011;10495;50.922;4.760;2022-07-18T09:58:23;3.47;;;2.03;;
20671;SDS011;10495;50.922;4.760;2022-07-18T10:00:51;2.60;;;1.95;;
20671;SDS011;10495;50.922;4.760;2022-07-18T10:03:18;2.22;;;1.52;;
20671;SDS011;10495;50.922;4.760;2022-07-18T10:05:45;3.67;;;1.90;;
20671;SDS011;10495;50.922;4.760;2022-07-18T10:08:15;3.03;;;1.58;;
20671;SDS011;10495;50.922;4.760;2022-07-18T10:10:43;3.60;;;2.10;;
20671;SDS011;10495;50.922;4.760;2022-07-18T10:13:10;4.97;;;1.80;;
20671;SDS011;10495;50.922;4.760;2022-07-18T10:15:37;3.05;;;1.70;;
20671;SDS011;10495;50.922;4.760;2022-07-18T10:18:05;2.30;;;1.73;;
20671;SDS011;10495;50.922;4.760;2022-07-18T10:23:19;2.17;;;1.50;;
20671;SDS011;10495;50.922;4.760;2022-07-18T10:28:33;3.92;;;1.73;;
20671;SDS011;10495;50.922;4.760;2022-07-18T10:31:11;1.70;;;1.50;;
20671;SDS011;10495;50.922;4.760;2022-07-18T10:33:45;4.90;;;1.70;;
20671;SDS011;10495;50.922;4.760;2022-07-18T10:47:01;5.30;;;1.88;;
20671;SDS011;10495;50.922;4.760;2022-07-18T11:00:17;2.22;;;1.58;;
20671;SDS011;10495;50.922;4.760;2022-07-18T11:02:43;3.65;;;1.83;;
20671;SDS011;10495;50.922;4.760;2022-07-18T11:08:37;2.63;;;1.88;;
20671;SDS011;10495;50.922;4.760;2022-07-18T11:18:24;2.50;;;1.98;;
20671;SDS011;10495;50.922;4.760;2022-07-18T11:20:50;2.80;;;1.80;;
20671;SDS011;10495;50.922;4.760;2022-07-18T11:25:58;3.95;;;1.80;;
20671;SDS011;10495;50.922;4.760;2022-07-18T11:28:24;3.33;;;1.80;;
20671;SDS011;10495;50.922;4.760;2022-07-18T11:33:28;2.10;;;1.67;;
20671;SDS011;10495;50.922;4.760;2022-07-18T11:38:46;2.80;;;1.98;;
20671;SDS011;10495;50.922;4.760;2022-07-18T11:41:14;4.80;;;2.10;;
20671;SDS011;10495;50.922;4.760;2022-07-18T11:43:40;3.53;;;1.75;;
20671;SDS011;10495;50.922;4.760;2022-07-18T11:46:09;2.50;;;1.95;;
20671;SDS011;10495;50.922;4.760;2022-07-18T11:48:36;2.58;;;1.70;;
20671;SDS011;10495;50.922;4.760;2022-07-18T11:51:08;2.53;;;1.83;;
20671;SDS011;10495;50.922;4.760;2022-07-18T11:53:34;2.53;;;1.85;;
20671;SDS011;10495;50.922;4.760;2022-07-18T11:56:04;3.55;;;1.85;;
20671;SDS011;10495;50.922;4.760;2022-07-18T11:58:35;2.42;;;1.70;;
20671;SDS011;10495;50.922;4.760;2022-07-18T12:01:02;3.00;;;1.70;;
20671;SDS011;10495;50.922;4.760;2022-07-18T12:03:28;2.22;;;1.60;;
20671;SDS011;10495;50.922;4.760;2022-07-18T12:05:55;1.88;;;1.65;;
20671;SDS011;10495;50.922;4.760;2022-07-18T12:08:27;1.83;;;1.52;;
20671;SDS011;10495;50.922;4.760;2022-07-18T12:16:24;1.50;;;1.40;;
20671;SDS011;10495;50.922;4.760;2022-07-18T12:19:21;2.38;;;1.77;;
20671;SDS011;10495;50.922;4.760;2022-07-18T12:24:31;2.15;;;1.80;;
20671;SDS011;10495;50.922;4.760;2022-07-18T12:37:39;1.90;;;1.45;;
20671;SDS011;10495;50.922;4.760;2022-07-18T12:40:09;1.70;;;1.60;;
20671;SDS011;10495;50.922;4.760;2022-07-18T12:42:40;3.75;;;1.85;;
20671;SDS011;10495;50.922;4.760;2022-07-18T12:45:07;2.20;;;1.70;;
20671;SDS011;10495;50.922;4.760;2022-07-18T12:47:34;2.47;;;1.50;;
20671;SDS011;10495;50.922;4.760;2022-07-18T12:49:59;1.73;;;1.63;;
20671;SDS011;10495;50.922;4.760;2022-07-18T12:52:25;1.92;;;1.63;;
20671;SDS011;10495;50.922;4.760;2022-07-18T12:54:51;1.80;;;1.58;;
20671;SDS011;10495;50.922;4.760;2022-07-18T12:57:17;2.60;;;1.80;;
20671;SDS011;10495;50.922;4.760;2022-07-18T12:59:44;2.45;;;1.60;;
20671;SDS011;10495;50.922;4.760;2022-07-18T13:02:11;3.13;;;1.80;;
20671;SDS011;10495;50.922;4.760;2022-07-18T13:04:38;3.30;;;1.80;;
20671;SDS011;10495;50.922;4.760;2022-07-18T13:07:03;2.55;;;1.67;;
20671;SDS011;10495;50.922;4.760;2022-07-18T13:09:29;3.35;;;1.80;;
20671;SDS011;10495;50.922;4.760;2022-07-18T13:11:55;3.60;;;1.85;;
20671;SDS011;10495;50.922;4.760;2022-07-18T13:14:21;3.47;;;1.52;;
20671;SDS011;10495;50.922;4.760;2022-07-18T13:16:47;1.90;;;1.63;;
20671;SDS011;10495;50.922;4.760;2022-07-18T13:19:14;2.97;;;1.92;;
20671;SDS011;10495;50.922;4.760;2022-07-18T13:21:41;2.28;;;1.92;;
20671;SDS011;10495;50.922;4.760;2022-07-18T13:24:08;1.65;;;1.55;;
20671;SDS011;10495;50.922;4.760;2022-07-18T13:26:33;6.30;;;1.80;;
20671;SDS011;10495;50.922;4.760;2022-07-18T13:28:59;1.90;;;1.80;;
20671;SDS011;10495;50.922;4.760;2022-07-18T13:31:25;2.80;;;1.90;;
20671;SDS011;10495;50.922;4.760;2022-07-18T13:33:51;1.67;;;1.50;;
20671;SDS011;10495;50.922;4.760;2022-07-18T13:36:17;2.40;;;1.60;;
20671;SDS011;10495;50.922;4.760;2022-07-18T13:38:43;2.15;;;1.58;;
20671;SDS011;10495;50.922;4.760;2022-07-18T13:41:10;2.17;;;1.90;;
20671;SDS011;10495;50.922;4.760;2022-07-18T13:43:36;1.90;;;1.70;;
20671;SDS011;10495;50.922;4.760;2022-07-18T13:46:09;2.83;;;2.05;;
20671;SDS011;10495;50.922;4.760;2022-07-18T13:48:37;2.13;;;1.67;;
20671;SDS011;10495;50.922;4.760;2022-07-18T13:51:03;3.08;;;1.80;;
20671;SDS011;10495;50.922;4.760;2022-07-18T13:53:29;1.60;;;1.50;;
20671;SDS011;10495;50.922;4.760;2022-07-18T13:55:55;3.90;;;1.70;;
20671;SDS011;10495;50.922;4.760;2022-07-18T13:58:21;2.13;;;1.80;;
20671;SDS011;10495;50.922;4.760;2022-07-18T14:00:48;1.90;;;1.70;;
20671;SDS011;10495;50.922;4.760;2022-07-18T14:03:14;2.20;;;2.00;;
20671;SDS011;10495;50.922;4.760;2022-07-18T14:05:40;3.13;;;1.70;;
20671;SDS011;10495;50.922;4.760;2022-07-18T14:08:06;3.17;;;1.80;;
20671;SDS011;10495;50.922;4.760;2022-07-18T14:10:32;2.60;;;1.77;;
20671;SDS011;10495;50.922;4.760;2022-07-18T14:12:59;3.60;;;1.88;;
20671;SDS011;10495;50.922;4.760;2022-07-18T14:15:25;2.38;;;1.67;;
20671;SDS011;10495;50.922;4.760;2022-07-18T14:17:51;1.80;;;1.67;;
20671;SDS011;10495;50.922;4.760;2022-07-18T14:20:17;1.67;;;1.58;;
20671;SDS011;10495;50.922;4.760;2022-07-18T14:22:43;2.50;;;1.50;;
20671;SDS011;10495;50.922;4.760;2022-07-18T14:25:10;2.15;;;1.95;;
20671;SDS011;10495;50.922;4.760;2022-07-18T14:27:38;2.10;;;1.90;;
20671;SDS011;10495;50.922;4.760;2022-07-18T14:30:04;2.13;;;1.85;;
20671;SDS011;10495;50.922;4.760;2022-07-18T14:32:32;2.00;;;1.73;;
20671;SDS011;10495;50.922;4.760;2022-07-18T14:34:57;2.20;;;2.00;;
20671;SDS011;10495;50.922;4.760;2022-07-18T14:37:23;2.13;;;1.80;;
20671;SDS011;10495;50.922;4.760;2022-07-18T14:39:49;1.77;;;1.35;;
20671;SDS011;10495;50.922;4.760;2022-07-18T14:42:14;2.00;;;1.88;;
20671;SDS011;10495;50.922;4.760;2022-07-18T14:44:40;1.60;;;1.50;;
20671;SDS011;10495;50.922;4.760;2022-07-18T14:47:06;3.75;;;1.88;;
20671;SDS011;10495;50.922;4.760;2022-07-18T14:49:31;2.15;;;1.95;;
20671;SDS011;10495;50.922;4.760;2022-07-18T14:51:57;1.70;;;1.45;;
20671;SDS011;10495;50.922;4.760;2022-07-18T14:54:25;2.03;;;1.88;;
20671;SDS011;10495;50.922;4.760;2022-07-18T14:56:51;2.60;;;2.10;;
20671;SDS011;10495;50.922;4.760;2022-07-18T14:59:17;2.13;;;1.70;;
20671;SDS011;10495;50.922;4.760;2022-07-18T15:01:43;1.58;;;1.48;;
20671;SDS011;10495;50.922;4.760;2022-07-18T15:04:09;3.72;;;1.63;;
20671;SDS011;10495;50.922;4.760;2022-07-18T15:06:35;2.55;;;1.88;;
20671;SDS011;10495;50.922;4.760;2022-07-18T15:09:00;1.70;;;1.60;;
20671;SDS011;10495;50.922;4.760;2022-07-18T15:11:26;2.25;;;1.77;;
20671;SDS011;10495;50.922;4.760;2022-07-18T15:13:51;2.28;;;1.83;;
20671;SDS011;10495;50.922;4.760;2022-07-18T15:16:17;2.20;;;1.90;;
20671;SDS011;10495;50.922;4.760;2022-07-18T15:18:43;2.20;;;1.80;;
20671;SDS011;10495;50.922;4.760;2022-07-18T15:21:09;2.05;;;1.80;;
20671;SDS011;10495;50.922;4.760;2022-07-18T15:23:34;2.22;;;1.52;;
20671;SDS011;10495;50.922;4.760;2022-07-18T15:26:00;3.97;;;1.95;;
20671;SDS011;10495;50.922;4.760;2022-07-18T15:28:26;1.60;;;1.50;;
20671;SDS011;10495;50.922;4.760;2022-07-18T15:30:51;2.65;;;1.80;;
20671;SDS011;10495;50.922;4.760;2022-07-18T15:33:17;2.13;;;1.80;;
20671;SDS011;10495;50.922;4.760;2022-07-18T15:35:43;2.30;;;1.67;;
20671;SDS011;10495;50.922;4.760;2022-07-18T15:38:09;3.67;;;1.65;;
20671;SDS011;10495;50.922;4.760;2022-07-18T15:40:35;1.98;;;1.77;;
20671;SDS011;10495;50.922;4.760;2022-07-18T15:43:01;3.35;;;1.67;;
20671;SDS011;10495;50.922;4.760;2022-07-18T15:45:27;1.92;;;1.65;;
20671;SDS011;10495;50.922;4.760;2022-07-18T15:47:53;2.97;;;2.00;;
20671;SDS011;10495;50.922;4.760;2022-07-18T15:50:19;2.25;;;1.70;;
20671;SDS011;10495;50.922;4.760;2022-07-18T15:52:45;2.25;;;1.88;;
20671;SDS011;10495;50.922;4.760;2022-07-18T15:55:11;2.53;;;1.88;;
20671;SDS011;10495;50.922;4.760;2022-07-18T15:57:36;2.05;;;1.85;;
20671;SDS011;10495;50.922;4.760;2022-07-18T16:00:03;3.15;;;1.80;;
20671;SDS011;10495;50.922;4.760;2022-07-18T16:02:30;2.13;;;1.80;;